Bastrop, Louisiana
Current Conditions -  °F | °C
As of 11:35 AM on Wednesday 26 Nov 2014 (Local Time) from KBQP Reporting Station
Clear Clear  
Wind Chill: 63°   Ceiling: Unl
Heat Index: 63°   Visibility: 10mi
Dew Point: 36°   Wind: 14mph
Humidity: 36%   Direction: 220°SW
Pressure: 30.07"   Gusts: 21mph
Location:  32.78°N, 91.91°W
Report Text: KBQP 261735Z AUTO 22012G18KT 10SM CLR 17/02 A3007 RMK AO2 T01710020
Loading
Personal Weather Stations






























Interactive Weather Map New forecast layout! Learn more

10-Day Weather Forecast

Advertisements
Track Severe Weather on mobile